Weather at Cyprus Expo Helipad

Public forecast

Using degrees Celsius for public forecast. Weather courtesy of forecast.io.

Closest aviation weather report (METAR) to Cyprus Expo Helipad

Closest report is Nicosia (Lefkoşa) Ercan International Airport, 9.3 nm (17.3 km) E.

2024/06/18 04:50 (retrieved 29 minutes ago)

LCEN 180450Z 32003KT CAVOK 27/22 Q1010 NOSIG RMK RWY11R ///// RWY29R 00000KT RWY11L 00000KT

Closest aviation forecast (TAF) to Cyprus Expo Helipad

Forecast is more than 6 hours old.

Closest forecast is Beirut Rafic Hariri International Airport, 133.9 nm (248.0 km) SE.

2024/06/17 21:00 (retrieved 8 hours ago)

TAF EDLW 172150Z 1721/1818 CNL TAF OLBA 172200Z 1800/1906 VRB02KT 7000 FEW026 TEMPO 1800/1806 5000 BR BECMG 1809/1812 30005KT 8000 BECMG 1815/1818 01005KT BECMG 1821/1824 VRB02KT TEMPO 1821/1906 4000 BR